Terminal Aerodrome Forecast
Issued by NWS

Current Version | Previous Version | Text Only | Print | Product List | Glossary On
Versions: 1 2 3 4 5 6 7 8 9 10 11 12 13 14 15 16 17 18 19 20 21 22 23 24 25 26 27 28
000
FTUS45 KSLC 050547 AAA
TAFOGD
TAF AMD
KOGD 050547Z 0506/0606 17008KT P6SM SCT060 OVC080
     FM050800 17009KT P6SM VCSH SCT035 OVC050
     FM051000 32010KT 2SM -SHSN BR SCT009 OVC020
     FM051200 34008KT P6SM VCSH SCT020 BKN040
     FM051600 33006KT P6SM SCT070
     FM060300 16006KT P6SM SCT070=

USA.gov is the U.S. government's official web portal to all federal, state and local government web resources and services.